sensor_id;sensor_type;location;lat;lon;timestamp;temperature;humidity
52899;DHT22;38763;53.096;6.062;2024-02-21T00:02:09;8.80;99.90
52899;DHT22;38763;53.096;6.062;2024-02-21T00:04:35;8.80;99.90
52899;DHT22;38763;53.096;6.062;2024-02-21T00:07:02;8.80;99.90
52899;DHT22;38763;53.096;6.062;2024-02-21T00:09:27;8.80;99.90
52899;DHT22;38763;53.096;6.062;2024-02-21T00:11:53;8.80;99.90
52899;DHT22;38763;53.096;6.062;2024-02-21T00:14:19;8.80;99.90
52899;DHT22;38763;53.096;6.062;2024-02-21T00:16:44;8.80;99.90
52899;DHT22;38763;53.096;6.062;2024-02-21T00:19:10;8.90;99.90
52899;DHT22;38763;53.096;6.062;2024-02-21T00:21:35;8.80;99.90
52899;DHT22;38763;53.096;6.062;2024-02-21T00:24:01;8.70;99.90
52899;DHT22;38763;53.096;6.062;2024-02-21T00:26:27;8.70;99.90
52899;DHT22;38763;53.096;6.062;2024-02-21T00:28:53;8.70;99.90
52899;DHT22;38763;53.096;6.062;2024-02-21T00:31:18;8.70;99.90
52899;DHT22;38763;53.096;6.062;2024-02-21T00:33:44;8.70;99.90
52899;DHT22;38763;53.096;6.062;2024-02-21T00:36:09;8.70;99.90
52899;DHT22;38763;53.096;6.062;2024-02-21T00:38:35;8.60;99.90
52899;DHT22;38763;53.096;6.062;2024-02-21T00:41:00;8.60;99.90
52899;DHT22;38763;53.096;6.062;2024-02-21T00:43:26;8.60;99.90
52899;DHT22;38763;53.096;6.062;2024-02-21T00:45:52;8.60;99.90
52899;DHT22;38763;53.096;6.062;2024-02-21T00:48:20;8.60;99.90
52899;DHT22;38763;53.096;6.062;2024-02-21T00:50:46;8.60;99.90
52899;DHT22;38763;53.096;6.062;2024-02-21T00:53:11;8.70;99.90
52899;DHT22;38763;53.096;6.062;2024-02-21T00:55:40;8.70;99.90
52899;DHT22;38763;53.096;6.062;2024-02-21T00:58:06;8.70;99.90
52899;DHT22;38763;53.096;6.062;2024-02-21T01:00:32;8.70;99.90
52899;DHT22;38763;53.096;6.062;2024-02-21T01:02:57;8.60;99.90
52899;DHT22;38763;53.096;6.062;2024-02-21T01:05:23;8.60;99.90
52899;DHT22;38763;53.096;6.062;2024-02-21T01:07:48;8.70;99.90
52899;DHT22;38763;53.096;6.062;2024-02-21T01:10:14;8.60;99.90
52899;DHT22;38763;53.096;6.062;2024-02-21T01:12:40;8.60;99.90
52899;DHT22;38763;53.096;6.062;2024-02-21T01:15:06;8.60;99.90
52899;DHT22;38763;53.096;6.062;2024-02-21T01:17:31;8.60;99.90
52899;DHT22;38763;53.096;6.062;2024-02-21T01:19:57;8.60;99.90
52899;DHT22;38763;53.096;6.062;2024-02-21T01:22:25;8.60;99.90
52899;DHT22;38763;53.096;6.062;2024-02-21T01:24:51;8.70;99.90
52899;DHT22;38763;53.096;6.062;2024-02-21T01:27:16;8.60;99.90
52899;DHT22;38763;53.096;6.062;2024-02-21T01:29:42;8.70;99.90
52899;DHT22;38763;53.096;6.062;2024-02-21T01:32:08;8.60;99.90
52899;DHT22;38763;53.096;6.062;2024-02-21T01:34:37;8.60;99.90
52899;DHT22;38763;53.096;6.062;2024-02-21T01:37:02;8.60;99.90
52899;DHT22;38763;53.096;6.062;2024-02-21T01:39:30;8.60;99.90
52899;DHT22;38763;53.096;6.062;2024-02-21T01:41:56;8.60;99.90
52899;DHT22;38763;53.096;6.062;2024-02-21T01:44:21;8.60;99.90
52899;DHT22;38763;53.096;6.062;2024-02-21T01:46:47;8.60;99.90
52899;DHT22;38763;53.096;6.062;2024-02-21T01:49:13;8.70;99.90
52899;DHT22;38763;53.096;6.062;2024-02-21T01:51:39;8.60;99.90
52899;DHT22;38763;53.096;6.062;2024-02-21T01:54:05;8.60;99.90
52899;DHT22;38763;53.096;6.062;2024-02-21T01:56:31;8.60;99.90
52899;DHT22;38763;53.096;6.062;2024-02-21T01:58:57;8.60;99.90
52899;DHT22;38763;53.096;6.062;2024-02-21T02:01:23;8.60;99.90
52899;DHT22;38763;53.096;6.062;2024-02-21T02:03:48;8.70;99.90
52899;DHT22;38763;53.096;6.062;2024-02-21T02:06:18;8.60;99.90
52899;DHT22;38763;53.096;6.062;2024-02-21T02:08:44;8.60;99.90
52899;DHT22;38763;53.096;6.062;2024-02-21T02:11:10;8.60;99.90
52899;DHT22;38763;53.096;6.062;2024-02-21T02:13:36;8.60;99.90
52899;DHT22;38763;53.096;6.062;2024-02-21T02:16:01;8.60;99.90
52899;DHT22;38763;53.096;6.062;2024-02-21T02:18:27;8.50;99.90
52899;DHT22;38763;53.096;6.062;2024-02-21T02:20:52;8.60;99.90
52899;DHT22;38763;53.096;6.062;2024-02-21T02:23:38;8.70;99.90
52899;DHT22;38763;53.096;6.062;2024-02-21T02:26:04;8.60;99.90
52899;DHT22;38763;53.096;6.062;2024-02-21T02:28:32;8.60;99.90
52899;DHT22;38763;53.096;6.062;2024-02-21T02:30:58;8.60;99.90
52899;DHT22;38763;53.096;6.062;2024-02-21T02:33:24;8.50;99.90
52899;DHT22;38763;53.096;6.062;2024-02-21T02:35:49;8.70;99.90
52899;DHT22;38763;53.096;6.062;2024-02-21T02:38:15;8.60;99.90
52899;DHT22;38763;53.096;6.062;2024-02-21T02:40:41;8.60;99.90
52899;DHT22;38763;53.096;6.062;2024-02-21T02:43:07;8.60;99.90
52899;DHT22;38763;53.096;6.062;2024-02-21T02:45:33;8.60;99.90
52899;DHT22;38763;53.096;6.062;2024-02-21T02:47:59;8.60;99.90
52899;DHT22;38763;53.096;6.062;2024-02-21T02:50:26;8.60;99.90
52899;DHT22;38763;53.096;6.062;2024-02-21T02:52:55;8.70;99.90
52899;DHT22;38763;53.096;6.062;2024-02-21T02:55:21;8.60;99.90
52899;DHT22;38763;53.096;6.062;2024-02-21T02:57:47;8.60;99.90
52899;DHT22;38763;53.096;6.062;2024-02-21T03:00:14;8.60;99.90
52899;DHT22;38763;53.096;6.062;2024-02-21T03:02:41;8.60;99.90
52899;DHT22;38763;53.096;6.062;2024-02-21T03:05:20;8.60;99.90
52899;DHT22;38763;53.096;6.062;2024-02-21T03:07:47;8.70;99.90
52899;DHT22;38763;53.096;6.062;2024-02-21T03:10:13;8.60;99.90
52899;DHT22;38763;53.096;6.062;2024-02-21T03:12:39;8.70;99.90
52899;DHT22;38763;53.096;6.062;2024-02-21T03:15:05;8.70;99.90
52899;DHT22;38763;53.096;6.062;2024-02-21T03:17:32;8.70;99.90
52899;DHT22;38763;53.096;6.062;2024-02-21T03:20:00;8.60;99.90
52899;DHT22;38763;53.096;6.062;2024-02-21T03:22:26;8.60;99.90
52899;DHT22;38763;53.096;6.062;2024-02-21T03:24:52;8.70;99.90
52899;DHT22;38763;53.096;6.062;2024-02-21T03:27:18;8.60;99.90
52899;DHT22;38763;53.096;6.062;2024-02-21T03:29:44;8.60;99.90
52899;DHT22;38763;53.096;6.062;2024-02-21T03:32:09;8.70;99.90
52899;DHT22;38763;53.096;6.062;2024-02-21T03:34:35;8.70;99.90
52899;DHT22;38763;53.096;6.062;2024-02-21T03:37:01;8.60;99.90
52899;DHT22;38763;53.096;6.062;2024-02-21T03:39:27;8.60;99.90
52899;DHT22;38763;53.096;6.062;2024-02-21T03:41:52;8.70;99.90
52899;DHT22;38763;53.096;6.062;2024-02-21T03:44:19;8.60;99.90
52899;DHT22;38763;53.096;6.062;2024-02-21T03:46:44;8.60;99.90
52899;DHT22;38763;53.096;6.062;2024-02-21T03:49:10;8.60;99.90
52899;DHT22;38763;53.096;6.062;2024-02-21T03:51:36;8.60;99.90
52899;DHT22;38763;53.096;6.062;2024-02-21T03:54:01;8.60;99.90
52899;DHT22;38763;53.096;6.062;2024-02-21T03:56:27;8.60;99.90
52899;DHT22;38763;53.096;6.062;2024-02-21T03:58:53;8.70;99.90
52899;DHT22;38763;53.096;6.062;2024-02-21T04:01:18;8.60;99.90
52899;DHT22;38763;53.096;6.062;2024-02-21T04:03:44;8.60;99.90
52899;DHT22;38763;53.096;6.062;2024-02-21T04:06:10;8.60;99.90
52899;DHT22;38763;53.096;6.062;2024-02-21T04:08:39;8.50;99.90
52899;DHT22;38763;53.096;6.062;2024-02-21T04:11:04;8.50;99.90
52899;DHT22;38763;53.096;6.062;2024-02-21T04:13:30;8.70;99.90
52899;DHT22;38763;53.096;6.062;2024-02-21T04:15:55;8.60;99.90
52899;DHT22;38763;53.096;6.062;2024-02-21T04:18:22;8.60;99.90
52899;DHT22;38763;53.096;6.062;2024-02-21T04:20:48;8.70;99.90
52899;DHT22;38763;53.096;6.062;2024-02-21T04:23:13;8.60;99.90
52899;DHT22;38763;53.096;6.062;2024-02-21T04:25:39;8.60;99.90
52899;DHT22;38763;53.096;6.062;2024-02-21T04:28:05;8.50;99.90
52899;DHT22;38763;53.096;6.062;2024-02-21T04:30:31;8.50;99.90
52899;DHT22;38763;53.096;6.062;2024-02-21T04:32:56;8.60;99.90
52899;DHT22;38763;53.096;6.062;2024-02-21T04:35:22;8.50;99.90
52899;DHT22;38763;53.096;6.062;2024-02-21T04:37:48;8.40;99.90
52899;DHT22;38763;53.096;6.062;2024-02-21T04:40:14;8.50;99.90
52899;DHT22;38763;53.096;6.062;2024-02-21T04:42:40;8.50;99.90
52899;DHT22;38763;53.096;6.062;2024-02-21T04:45:06;8.50;99.90
52899;DHT22;38763;53.096;6.062;2024-02-21T04:47:33;8.50;99.90
52899;DHT22;38763;53.096;6.062;2024-02-21T04:49:58;8.50;99.90
52899;DHT22;38763;53.096;6.062;2024-02-21T04:52:24;8.50;99.90
52899;DHT22;38763;53.096;6.062;2024-02-21T04:54:49;8.50;99.90
52899;DHT22;38763;53.096;6.062;2024-02-21T04:57:16;8.50;99.90
52899;DHT22;38763;53.096;6.062;2024-02-21T04:59:45;8.60;99.90
52899;DHT22;38763;53.096;6.062;2024-02-21T05:02:13;8.50;99.90
52899;DHT22;38763;53.096;6.062;2024-02-21T05:04:39;8.60;99.90
52899;DHT22;38763;53.096;6.062;2024-02-21T05:07:05;8.50;99.90
52899;DHT22;38763;53.096;6.062;2024-02-21T05:09:31;8.50;99.90
52899;DHT22;38763;53.096;6.062;2024-02-21T05:11:57;8.60;99.90
52899;DHT22;38763;53.096;6.062;2024-02-21T05:14:24;8.50;99.90
52899;DHT22;38763;53.096;6.062;2024-02-21T05:16:50;8.60;99.90
52899;DHT22;38763;53.096;6.062;2024-02-21T05:19:16;8.60;99.90
52899;DHT22;38763;53.096;6.062;2024-02-21T05:21:41;8.60;99.90
52899;DHT22;38763;53.096;6.062;2024-02-21T05:24:07;8.50;99.90
52899;DHT22;38763;53.096;6.062;2024-02-21T05:26:32;8.50;99.90
52899;DHT22;38763;53.096;6.062;2024-02-21T05:28:58;8.50;99.90
52899;DHT22;38763;53.096;6.062;2024-02-21T05:31:25;8.50;99.90
52899;DHT22;38763;53.096;6.062;2024-02-21T05:33:51;8.50;99.90
52899;DHT22;38763;53.096;6.062;2024-02-21T05:36:16;8.70;99.90
52899;DHT22;38763;53.096;6.062;2024-02-21T05:38:42;8.50;99.90
52899;DHT22;38763;53.096;6.062;2024-02-21T05:41:08;8.60;99.90
52899;DHT22;38763;53.096;6.062;2024-02-21T05:43:33;8.50;99.90
52899;DHT22;38763;53.096;6.062;2024-02-21T05:45:59;8.50;99.90
52899;DHT22;38763;53.096;6.062;2024-02-21T05:48:25;8.50;99.90
52899;DHT22;38763;53.096;6.062;2024-02-21T05:50:51;8.50;99.90
52899;DHT22;38763;53.096;6.062;2024-02-21T05:53:16;8.50;99.90
52899;DHT22;38763;53.096;6.062;2024-02-21T05:55:42;8.50;99.90
52899;DHT22;38763;53.096;6.062;2024-02-21T05:58:08;8.50;99.90
52899;DHT22;38763;53.096;6.062;2024-02-21T06:00:37;8.50;99.90
52899;DHT22;38763;53.096;6.062;2024-02-21T06:03:03;8.50;99.90
52899;DHT22;38763;53.096;6.062;2024-02-21T06:05:28;8.50;99.90
52899;DHT22;38763;53.096;6.062;2024-02-21T06:07:54;8.50;99.90
52899;DHT22;38763;53.096;6.062;2024-02-21T06:10:20;8.50;99.90
52899;DHT22;38763;53.096;6.062;2024-02-21T06:12:46;8.50;99.90
52899;DHT22;38763;53.096;6.062;2024-02-21T06:15:11;8.50;99.90
52899;DHT22;38763;53.096;6.062;2024-02-21T06:17:37;8.50;99.90
52899;DHT22;38763;53.096;6.062;2024-02-21T06:20:03;8.50;99.90
52899;DHT22;38763;53.096;6.062;2024-02-21T06:22:30;8.50;99.90
52899;DHT22;38763;53.096;6.062;2024-02-21T06:24:56;8.50;99.90
52899;DHT22;38763;53.096;6.062;2024-02-21T06:27:21;8.50;99.90
52899;DHT22;38763;53.096;6.062;2024-02-21T06:29:47;8.60;99.90
52899;DHT22;38763;53.096;6.062;2024-02-21T06:32:13;8.50;99.90
52899;DHT22;38763;53.096;6.062;2024-02-21T06:34:38;8.40;99.90
52899;DHT22;38763;53.096;6.062;2024-02-21T06:37:04;8.60;99.90
52899;DHT22;38763;53.096;6.062;2024-02-21T06:39:30;8.60;99.90
52899;DHT22;38763;53.096;6.062;2024-02-21T06:41:55;8.60;99.90
52899;DHT22;38763;53.096;6.062;2024-02-21T06:44:24;8.50;99.90
52899;DHT22;38763;53.096;6.062;2024-02-21T06:46:49;8.50;99.90
52899;DHT22;38763;53.096;6.062;2024-02-21T06:49:15;8.50;99.90
52899;DHT22;38763;53.096;6.062;2024-02-21T06:51:43;8.50;99.90
52899;DHT22;38763;53.096;6.062;2024-02-21T06:54:09;8.50;99.90
52899;DHT22;38763;53.096;6.062;2024-02-21T06:56:36;8.60;99.90
52899;DHT22;38763;53.096;6.062;2024-02-21T06:59:02;8.50;99.90
52899;DHT22;38763;53.096;6.062;2024-02-21T07:01:31;8.60;99.90
52899;DHT22;38763;53.096;6.062;2024-02-21T07:03:57;8.60;99.90
52899;DHT22;38763;53.096;6.062;2024-02-21T07:06:23;8.60;99.90
52899;DHT22;38763;53.096;6.062;2024-02-21T07:08:48;8.60;99.90
52899;DHT22;38763;53.096;6.062;2024-02-21T07:11:14;8.60;99.90
52899;DHT22;38763;53.096;6.062;2024-02-21T07:13:40;8.50;99.90
52899;DHT22;38763;53.096;6.062;2024-02-21T07:16:07;8.60;99.90
52899;DHT22;38763;53.096;6.062;2024-02-21T07:18:32;8.60;99.90
52899;DHT22;38763;53.096;6.062;2024-02-21T07:20:58;8.60;99.90
52899;DHT22;38763;53.096;6.062;2024-02-21T07:23:24;8.60;99.90
52899;DHT22;38763;53.096;6.062;2024-02-21T07:25:50;8.60;99.90
52899;DHT22;38763;53.096;6.062;2024-02-21T07:28:16;8.70;99.90
52899;DHT22;38763;53.096;6.062;2024-02-21T07:30:42;8.70;99.90
52899;DHT22;38763;53.096;6.062;2024-02-21T07:33:08;8.70;99.90
52899;DHT22;38763;53.096;6.062;2024-02-21T07:35:34;8.70;99.90
52899;DHT22;38763;53.096;6.062;2024-02-21T07:38:03;8.70;99.90
52899;DHT22;38763;53.096;6.062;2024-02-21T07:40:29;8.70;99.90
52899;DHT22;38763;53.096;6.062;2024-02-21T07:42:55;8.70;99.90
52899;DHT22;38763;53.096;6.062;2024-02-21T07:45:20;8.70;99.90
52899;DHT22;38763;53.096;6.062;2024-02-21T07:47:49;8.70;99.90
52899;DHT22;38763;53.096;6.062;2024-02-21T07:50:14;8.70;99.90
52899;DHT22;38763;53.096;6.062;2024-02-21T07:52:40;8.70;99.90
52899;DHT22;38763;53.096;6.062;2024-02-21T07:55:06;8.70;99.90
52899;DHT22;38763;53.096;6.062;2024-02-21T07:57:31;8.70;99.90
52899;DHT22;38763;53.096;6.062;2024-02-21T07:59:57;8.70;99.90
52899;DHT22;38763;53.096;6.062;2024-02-21T08:02:23;8.60;99.90
52899;DHT22;38763;53.096;6.062;2024-02-21T08:04:48;8.70;99.90
52899;DHT22;38763;53.096;6.062;2024-02-21T08:07:14;8.70;99.90
52899;DHT22;38763;53.096;6.062;2024-02-21T08:09:40;8.70;99.90
52899;DHT22;38763;53.096;6.062;2024-02-21T08:12:06;8.70;99.90
52899;DHT22;38763;53.096;6.062;2024-02-21T08:14:31;8.60;99.90
52899;DHT22;38763;53.096;6.062;2024-02-21T08:16:57;8.70;99.90
52899;DHT22;38763;53.096;6.062;2024-02-21T08:19:24;8.70;99.90
52899;DHT22;38763;53.096;6.062;2024-02-21T08:21:50;8.70;99.90
52899;DHT22;38763;53.096;6.062;2024-02-21T08:24:16;8.60;99.90
52899;DHT22;38763;53.096;6.062;2024-02-21T08:26:43;8.70;99.90
52899;DHT22;38763;53.096;6.062;2024-02-21T08:29:10;8.70;99.90
52899;DHT22;38763;53.096;6.062;2024-02-21T08:31:36;8.80;99.90
52899;DHT22;38763;53.096;6.062;2024-02-21T08:34:02;8.80;99.90
52899;DHT22;38763;53.096;6.062;2024-02-21T08:38:55;8.80;99.90
52899;DHT22;38763;53.096;6.062;2024-02-21T08:41:22;8.70;99.90
52899;DHT22;38763;53.096;6.062;2024-02-21T08:43:50;8.80;99.90
52899;DHT22;38763;53.096;6.062;2024-02-21T08:46:16;8.80;99.90
52899;DHT22;38763;53.096;6.062;2024-02-21T08:48:41;8.80;99.90
52899;DHT22;38763;53.096;6.062;2024-02-21T08:51:07;8.80;99.90
52899;DHT22;38763;53.096;6.062;2024-02-21T08:53:33;8.70;99.90
52899;DHT22;38763;53.096;6.062;2024-02-21T08:55:59;8.80;99.90
52899;DHT22;38763;53.096;6.062;2024-02-21T08:58:24;8.80;99.90
52899;DHT22;38763;53.096;6.062;2024-02-21T09:00:52;8.80;99.90
52899;DHT22;38763;53.096;6.062;2024-02-21T09:03:18;8.80;99.90
52899;DHT22;38763;53.096;6.062;2024-02-21T09:05:46;8.80;99.90
52899;DHT22;38763;53.096;6.062;2024-02-21T09:08:12;8.80;99.90
52899;DHT22;38763;53.096;6.062;2024-02-21T09:10:39;8.80;99.90
52899;DHT22;38763;53.096;6.062;2024-02-21T09:13:04;8.80;99.90
52899;DHT22;38763;53.096;6.062;2024-02-21T09:15:31;8.80;99.90
52899;DHT22;38763;53.096;6.062;2024-02-21T09:17:57;8.80;99.90
52899;DHT22;38763;53.096;6.062;2024-02-21T09:20:22;8.90;99.90
52899;DHT22;38763;53.096;6.062;2024-02-21T09:22:48;8.90;99.90
52899;DHT22;38763;53.096;6.062;2024-02-21T09:25:14;8.90;99.90
52899;DHT22;38763;53.096;6.062;2024-02-21T09:27:40;8.90;99.90
52899;DHT22;38763;53.096;6.062;2024-02-21T09:30:06;8.90;99.90
52899;DHT22;38763;53.096;6.062;2024-02-21T09:32:32;8.90;99.90
52899;DHT22;38763;53.096;6.062;2024-02-21T09:35:00;8.90;99.90
52899;DHT22;38763;53.096;6.062;2024-02-21T09:37:26;9.00;99.90
52899;DHT22;38763;53.096;6.062;2024-02-21T09:39:51;9.00;99.90
52899;DHT22;38763;53.096;6.062;2024-02-21T09:42:21;9.00;99.90
52899;DHT22;38763;53.096;6.062;2024-02-21T09:44:50;9.00;99.90
52899;DHT22;38763;53.096;6.062;2024-02-21T09:47:23;9.00;99.90
52899;DHT22;38763;53.096;6.062;2024-02-21T09:49:49;9.00;99.90
52899;DHT22;38763;53.096;6.062;2024-02-21T09:52:18;9.00;99.90
52899;DHT22;38763;53.096;6.062;2024-02-21T09:54:44;9.10;99.90
52899;DHT22;38763;53.096;6.062;2024-02-21T09:57:14;9.10;99.90
52899;DHT22;38763;53.096;6.062;2024-02-21T09:59:40;9.20;99.90
52899;DHT22;38763;53.096;6.062;2024-02-21T10:02:07;9.20;99.90
52899;DHT22;38763;53.096;6.062;2024-02-21T10:04:33;9.30;99.90
52899;DHT22;38763;53.096;6.062;2024-02-21T10:06:59;9.30;99.90
52899;DHT22;38763;53.096;6.062;2024-02-21T10:09:28;9.20;99.90
52899;DHT22;38763;53.096;6.062;2024-02-21T10:11:55;9.30;99.90
52899;DHT22;38763;53.096;6.062;2024-02-21T10:14:21;9.20;99.90
52899;DHT22;38763;53.096;6.062;2024-02-21T10:16:57;9.20;99.90
52899;DHT22;38763;53.096;6.062;2024-02-21T10:19:25;9.20;99.90
52899;DHT22;38763;53.096;6.062;2024-02-21T10:22:05;9.20;99.90
52899;DHT22;38763;53.096;6.062;2024-02-21T10:24:33;9.20;99.90
52899;DHT22;38763;53.096;6.062;2024-02-21T10:27:03;9.30;99.90
52899;DHT22;38763;53.096;6.062;2024-02-21T10:29:32;9.30;99.90
52899;DHT22;38763;53.096;6.062;2024-02-21T10:32:07;9.40;99.90
52899;DHT22;38763;53.096;6.062;2024-02-21T10:34:34;9.40;99.90
52899;DHT22;38763;53.096;6.062;2024-02-21T10:37:03;9.50;99.90
52899;DHT22;38763;53.096;6.062;2024-02-21T10:39:33;9.50;99.90
52899;DHT22;38763;53.096;6.062;2024-02-21T10:42:01;9.50;99.90
52899;DHT22;38763;53.096;6.062;2024-02-21T10:44:32;9.70;99.90
52899;DHT22;38763;53.096;6.062;2024-02-21T10:46:58;9.70;99.90
52899;DHT22;38763;53.096;6.062;2024-02-21T10:49:25;9.70;99.90
52899;DHT22;38763;53.096;6.062;2024-02-21T10:51:55;9.70;99.90
52899;DHT22;38763;53.096;6.062;2024-02-21T10:54:55;9.70;99.90
52899;DHT22;38763;53.096;6.062;2024-02-21T10:57:22;9.70;99.90
52899;DHT22;38763;53.096;6.062;2024-02-21T10:59:49;9.60;99.90
52899;DHT22;38763;53.096;6.062;2024-02-21T11:02:15;9.80;99.90
52899;DHT22;38763;53.096;6.062;2024-02-21T11:04:41;9.60;99.90
52899;DHT22;38763;53.096;6.062;2024-02-21T11:07:08;9.50;99.90
52899;DHT22;38763;53.096;6.062;2024-02-21T11:09:34;9.60;99.90
52899;DHT22;38763;53.096;6.062;2024-02-21T11:12:05;9.60;99.90
52899;DHT22;38763;53.096;6.062;2024-02-21T11:14:31;9.60;99.90
52899;DHT22;38763;53.096;6.062;2024-02-21T11:16:58;9.50;99.90
52899;DHT22;38763;53.096;6.062;2024-02-21T11:19:28;9.50;99.90
52899;DHT22;38763;53.096;6.062;2024-02-21T11:21:55;9.50;99.90
52899;DHT22;38763;53.096;6.062;2024-02-21T11:24:32;9.50;99.90
52899;DHT22;38763;53.096;6.062;2024-02-21T11:27:18;9.50;99.90
52899;DHT22;38763;53.096;6.062;2024-02-21T11:29:46;9.50;99.90
52899;DHT22;38763;53.096;6.062;2024-02-21T11:32:16;9.50;99.90
52899;DHT22;38763;53.096;6.062;2024-02-21T11:34:56;9.60;99.90
52899;DHT22;38763;53.096;6.062;2024-02-21T11:37:25;9.60;99.90
52899;DHT22;38763;53.096;6.062;2024-02-21T11:39:51;9.50;99.90
52899;DHT22;38763;53.096;6.062;2024-02-21T11:42:18;9.50;99.90
52899;DHT22;38763;53.096;6.062;2024-02-21T11:44:44;9.60;99.90
52899;DHT22;38763;53.096;6.062;2024-02-21T11:47:10;9.60;99.90
52899;DHT22;38763;53.096;6.062;2024-02-21T11:49:43;9.60;99.90
52899;DHT22;38763;53.096;6.062;2024-02-21T11:52:11;9.70;99.90
52899;DHT22;38763;53.096;6.062;2024-02-21T11:54:37;9.60;99.90
52899;DHT22;38763;53.096;6.062;2024-02-21T11:57:02;9.70;99.90
52899;DHT22;38763;53.096;6.062;2024-02-21T11:59:33;9.70;99.90
52899;DHT22;38763;53.096;6.062;2024-02-21T12:02:00;9.60;99.90
52899;DHT22;38763;53.096;6.062;2024-02-21T12:04:26;9.70;99.90
52899;DHT22;38763;53.096;6.062;2024-02-21T12:06:54;9.60;99.90
52899;DHT22;38763;53.096;6.062;2024-02-21T12:09:23;9.70;99.90
52899;DHT22;38763;53.096;6.062;2024-02-21T12:12:04;9.70;99.90
52899;DHT22;38763;53.096;6.062;2024-02-21T12:14:31;9.70;99.90
52899;DHT22;38763;53.096;6.062;2024-02-21T12:16:57;9.80;99.90
52899;DHT22;38763;53.096;6.062;2024-02-21T12:19:22;9.60;99.90
52899;DHT22;38763;53.096;6.062;2024-02-21T12:21:49;9.60;99.90
52899;DHT22;38763;53.096;6.062;2024-02-21T12:24:25;9.80;99.90
52899;DHT22;38763;53.096;6.062;2024-02-21T12:26:52;9.60;99.90
52899;DHT22;38763;53.096;6.062;2024-02-21T12:29:21;9.70;99.90
52899;DHT22;38763;53.096;6.062;2024-02-21T12:31:51;9.70;99.90
52899;DHT22;38763;53.096;6.062;2024-02-21T12:34:17;9.50;99.90
52899;DHT22;38763;53.096;6.062;2024-02-21T12:36:44;9.60;99.90
52899;DHT22;38763;53.096;6.062;2024-02-21T12:39:10;9.60;99.90
52899;DHT22;38763;53.096;6.062;2024-02-21T12:41:37;9.70;99.90
52899;DHT22;38763;53.096;6.062;2024-02-21T12:44:09;9.40;99.90
52899;DHT22;38763;53.096;6.062;2024-02-21T12:46:37;9.60;99.90
52899;DHT22;38763;53.096;6.062;2024-02-21T12:49:03;9.80;99.90
52899;DHT22;38763;53.096;6.062;2024-02-21T12:51:30;9.70;99.90
52899;DHT22;38763;53.096;6.062;2024-02-21T12:53:59;9.90;99.90
52899;DHT22;38763;53.096;6.062;2024-02-21T12:56:25;9.70;99.90
52899;DHT22;38763;53.096;6.062;2024-02-21T12:58:55;9.80;99.90
52899;DHT22;38763;53.096;6.062;2024-02-21T13:01:20;9.90;99.90
52899;DHT22;38763;53.096;6.062;2024-02-21T13:03:46;10.00;99.90
52899;DHT22;38763;53.096;6.062;2024-02-21T13:06:12;10.00;99.90
52899;DHT22;38763;53.096;6.062;2024-02-21T13:08:38;10.10;99.90
52899;DHT22;38763;53.096;6.062;2024-02-21T13:11:04;10.00;99.90
52899;DHT22;38763;53.096;6.062;2024-02-21T13:13:30;9.90;99.90
52899;DHT22;38763;53.096;6.062;2024-02-21T13:15:57;10.00;99.90
52899;DHT22;38763;53.096;6.062;2024-02-21T13:18:23;10.00;99.90
52899;DHT22;38763;53.096;6.062;2024-02-21T13:20:49;10.00;99.90
52899;DHT22;38763;53.096;6.062;2024-02-21T13:23:14;10.10;99.90
52899;DHT22;38763;53.096;6.062;2024-02-21T13:25:43;10.00;99.90
52899;DHT22;38763;53.096;6.062;2024-02-21T13:28:11;10.10;99.90
52899;DHT22;38763;53.096;6.062;2024-02-21T13:30:36;10.10;99.90
52899;DHT22;38763;53.096;6.062;2024-02-21T13:33:02;10.00;99.90
52899;DHT22;38763;53.096;6.062;2024-02-21T13:35:28;10.10;99.90
52899;DHT22;38763;53.096;6.062;2024-02-21T13:37:54;10.00;99.90
52899;DHT22;38763;53.096;6.062;2024-02-21T13:40:20;10.10;99.90
52899;DHT22;38763;53.096;6.062;2024-02-21T13:42:45;10.10;99.90
52899;DHT22;38763;53.096;6.062;2024-02-21T13:45:11;10.00;99.90
52899;DHT22;38763;53.096;6.062;2024-02-21T13:47:36;10.00;99.90
52899;DHT22;38763;53.096;6.062;2024-02-21T13:50:04;9.90;99.90
52899;DHT22;38763;53.096;6.062;2024-02-21T13:52:30;9.90;99.90
52899;DHT22;38763;53.096;6.062;2024-02-21T13:54:56;9.90;99.90
52899;DHT22;38763;53.096;6.062;2024-02-21T13:57:22;10.00;99.90
52899;DHT22;38763;53.096;6.062;2024-02-21T13:59:48;10.00;99.90
52899;DHT22;38763;53.096;6.062;2024-02-21T14:02:16;10.10;99.90
52899;DHT22;38763;53.096;6.062;2024-02-21T14:04:42;10.00;99.90
52899;DHT22;38763;53.096;6.062;2024-02-21T14:07:08;9.80;99.90
52899;DHT22;38763;53.096;6.062;2024-02-21T14:09:34;9.90;99.90
52899;DHT22;38763;53.096;6.062;2024-02-21T14:12:03;9.80;99.90
52899;DHT22;38763;53.096;6.062;2024-02-21T14:14:29;9.70;99.90
52899;DHT22;38763;53.096;6.062;2024-02-21T14:16:55;9.70;99.90
52899;DHT22;38763;53.096;6.062;2024-02-21T14:19:21;9.80;99.90
52899;DHT22;38763;53.096;6.062;2024-02-21T14:21:47;9.80;99.90
52899;DHT22;38763;53.096;6.062;2024-02-21T14:24:13;9.70;99.90
52899;DHT22;38763;53.096;6.062;2024-02-21T14:26:41;9.70;99.90
52899;DHT22;38763;53.096;6.062;2024-02-21T14:29:07;9.80;99.90
52899;DHT22;38763;53.096;6.062;2024-02-21T14:31:32;9.60;99.90
52899;DHT22;38763;53.096;6.062;2024-02-21T14:33:58;9.60;99.90
52899;DHT22;38763;53.096;6.062;2024-02-21T14:36:26;9.70;99.90
52899;DHT22;38763;53.096;6.062;2024-02-21T14:38:51;9.70;99.90
52899;DHT22;38763;53.096;6.062;2024-02-21T14:41:20;9.70;99.90
52899;DHT22;38763;53.096;6.062;2024-02-21T14:43:46;9.60;99.90
52899;DHT22;38763;53.096;6.062;2024-02-21T14:46:12;9.50;99.90
52899;DHT22;38763;53.096;6.062;2024-02-21T14:48:38;9.50;99.90
52899;DHT22;38763;53.096;6.062;2024-02-21T14:51:04;9.60;99.90
52899;DHT22;38763;53.096;6.062;2024-02-21T14:53:30;9.50;99.90
52899;DHT22;38763;53.096;6.062;2024-02-21T14:55:58;9.50;99.90
52899;DHT22;38763;53.096;6.062;2024-02-21T14:58:24;9.70;99.90
52899;DHT22;38763;53.096;6.062;2024-02-21T15:00:50;9.60;99.90
52899;DHT22;38763;53.096;6.062;2024-02-21T15:03:16;9.70;99.90
52899;DHT22;38763;53.096;6.062;2024-02-21T15:05:45;9.50;99.90
52899;DHT22;38763;53.096;6.062;2024-02-21T15:08:11;9.60;99.90
52899;DHT22;38763;53.096;6.062;2024-02-21T15:10:37;9.60;99.90
52899;DHT22;38763;53.096;6.062;2024-02-21T15:13:03;9.60;99.90
52899;DHT22;38763;53.096;6.062;2024-02-21T15:15:29;9.50;99.90
52899;DHT22;38763;53.096;6.062;2024-02-21T15:17:55;9.60;99.90
52899;DHT22;38763;53.096;6.062;2024-02-21T15:20:20;9.60;99.90
52899;DHT22;38763;53.096;6.062;2024-02-21T15:22:46;9.50;99.90
52899;DHT22;38763;53.096;6.062;2024-02-21T15:25:11;9.50;99.90
52899;DHT22;38763;53.096;6.062;2024-02-21T15:27:43;9.60;99.90
52899;DHT22;38763;53.096;6.062;2024-02-21T15:30:10;9.60;99.90
52899;DHT22;38763;53.096;6.062;2024-02-21T15:32:36;9.60;99.90
52899;DHT22;38763;53.096;6.062;2024-02-21T15:35:06;9.50;99.90
52899;DHT22;38763;53.096;6.062;2024-02-21T15:37:35;9.50;99.90
52899;DHT22;38763;53.096;6.062;2024-02-21T15:40:00;9.60;99.90
52899;DHT22;38763;53.096;6.062;2024-02-21T15:42:26;9.50;99.90
52899;DHT22;38763;53.096;6.062;2024-02-21T15:44:52;9.50;99.90